Time;durP1;ratioP1;P1;durP2;ratioP2;P2;SDS_P1;SDS_P2;PMS_P1;PMS_P2;Temp;Humidity;BMP_temperature;BMP_pressure;BME280_temperature;BME280_humidity;BME280_pressure;Samples;Min_cycle;Max_cycle;Signal;HPM_P1;HPM_P2
2022/04/04 00:01:23;;;;;;;4.33;3.07;;;1.50;99.90;;;;;;5075958;28;20186;-45
2022/04/04 00:03:48;;;;;;;3.70;3.10;;;1.50;99.90;;;;;;5075485;28;20197;-45
2022/04/04 00:06:14;;;;;;;3.57;3.07;;;1.50;99.90;;;;;;5075352;28;20556;-45
2022/04/04 00:08:40;;;;;;;5.70;3.27;;;1.50;99.90;;;;;;5075394;28;20176;-46
2022/04/04 00:11:06;;;;;;;4.73;3.40;;;1.50;99.90;;;;;;5075406;28;20183;-45
2022/04/04 00:13:32;;;;;;;5.50;3.53;;;1.40;99.90;;;;;;5075605;28;20186;-46
2022/04/04 00:15:58;;;;;;;7.37;3.83;;;1.50;99.90;;;;;;5074209;28;20211;-45
2022/04/04 00:18:23;;;;;;;6.17;3.70;;;1.50;99.90;;;;;;5075375;28;20592;-43
2022/04/04 00:20:49;;;;;;;6.77;3.60;;;1.50;99.90;;;;;;5091454;28;20201;-43
2022/04/04 00:23:16;;;;;;;8.07;3.67;;;1.50;99.90;;;;;;5095227;28;20172;-44
2022/04/04 00:25:43;;;;;;;4.47;3.10;;;1.50;99.90;;;;;;5095153;28;20274;-45
2022/04/04 00:28:09;;;;;;;7.27;3.80;;;1.40;99.90;;;;;;5095218;28;20253;-42
2022/04/04 00:30:36;;;;;;;5.60;3.30;;;1.40;99.90;;;;;;5095260;28;20408;-42
2022/04/04 00:33:03;;;;;;;4.00;3.23;;;1.40;99.90;;;;;;5095080;28;20216;-44
2022/04/04 00:35:29;;;;;;;6.70;3.83;;;1.30;99.90;;;;;;5095163;28;20228;-44
2022/04/04 00:37:57;;;;;;;5.77;3.97;;;1.30;99.90;;;;;;5095160;28;20176;-45
2022/04/04 00:40:23;;;;;;;4.77;3.57;;;1.30;99.90;;;;;;5095191;28;20419;-44
2022/04/04 00:42:48;;;;;;;5.47;4.13;;;1.20;99.90;;;;;;5095366;28;20236;-44
2022/04/04 00:45:14;;;;;;;5.70;4.00;;;1.30;99.90;;;;;;5094856;28;20174;-45
2022/04/04 00:47:39;;;;;;;4.97;3.90;;;1.30;99.90;;;;;;5095151;28;20256;-45
2022/04/04 00:50:06;;;;;;;7.83;4.23;;;1.30;99.90;;;;;;5094668;28;20192;-42
2022/04/04 00:52:32;;;;;;;5.17;4.23;;;1.30;99.90;;;;;;5094603;28;20670;-43
2022/04/04 00:54:58;;;;;;;6.70;4.10;;;1.30;99.90;;;;;;5094726;28;20447;-43
2022/04/04 00:57:24;;;;;;;6.60;4.07;;;1.30;99.90;;;;;;5095542;28;20300;-45
2022/04/04 00:59:50;;;;;;;6.53;4.60;;;1.30;99.90;;;;;;5094869;28;20610;-44
2022/04/04 01:02:16;;;;;;;7.10;4.17;;;1.20;99.90;;;;;;5094511;28;20191;-44
2022/04/04 01:04:42;;;;;;;8.57;4.53;;;1.20;99.90;;;;;;5094473;28;20422;-44
2022/04/04 01:07:07;;;;;;;4.57;4.13;;;1.10;99.90;;;;;;5099747;28;20210;-46
2022/04/04 01:09:33;;;;;;;8.20;4.07;;;1.10;99.90;;;;;;5101316;28;20256;-45
2022/04/04 01:12:10;;;;;;;8.50;4.60;;;1.00;99.90;;;;;;5102087;28;20179;-46
2022/04/04 01:14:38;;;;;;;6.27;4.33;;;1.00;99.90;;;;;;5102664;28;20254;-45
2022/04/04 01:17:08;;;;;;;5.77;4.07;;;1.00;99.90;;;;;;5101391;28;20453;-46
2022/04/04 01:19:34;;;;;;;7.93;4.00;;;1.00;99.90;;;;;;5101317;28;20429;-46
2022/04/04 01:22:00;;;;;;;4.77;3.90;;;1.00;99.90;;;;;;5101175;28;20433;-46
2022/04/04 01:24:27;;;;;;;5.73;3.83;;;1.00;99.90;;;;;;5099707;28;20793;-46
2022/04/04 01:26:54;;;;;;;6.30;4.10;;;1.00;99.90;;;;;;5097329;28;20284;-46
2022/04/04 01:29:20;;;;;;;6.80;4.00;;;1.00;99.90;;;;;;5096099;28;20425;-47
2022/04/04 01:31:47;;;;;;;6.43;4.03;;;1.00;99.90;;;;;;5095443;28;20903;-46
2022/04/04 01:34:13;;;;;;;5.57;4.07;;;1.00;99.90;;;;;;5079374;28;20464;-45
2022/04/04 01:36:39;;;;;;;6.93;3.87;;;0.90;99.90;;;;;;5097707;28;20465;-45
2022/04/04 01:39:05;;;;;;;5.57;4.13;;;0.90;99.90;;;;;;5097906;28;20424;-43
2022/04/04 01:41:30;;;;;;;4.67;3.90;;;1.00;99.90;;;;;;5098613;28;20183;-46
2022/04/04 01:43:56;;;;;;;5.70;3.80;;;1.00;99.90;;;;;;5098922;28;20221;-46
2022/04/04 01:46:25;;;;;;;5.53;4.23;;;1.00;99.90;;;;;;5098241;28;20299;-46
2022/04/04 01:48:58;;;;;;;6.50;4.70;;;1.10;99.90;;;;;;5100462;28;20176;-44
2022/04/04 01:51:25;;;;;;;5.70;4.20;;;1.10;99.90;;;;;;5100214;28;20417;-44
2022/04/04 01:53:51;;;;;;;6.40;4.47;;;1.10;99.90;;;;;;5100445;28;20789;-45
2022/04/04 01:56:17;;;;;;;6.87;4.50;;;1.10;99.90;;;;;;5100909;28;20456;-47
2022/04/04 01:58:43;;;;;;;5.23;4.17;;;1.10;99.90;;;;;;5082399;28;20174;-41
2022/04/04 02:01:18;;;;;;;5.90;4.20;;;1.10;99.90;;;;;;5100619;28;20832;-46
2022/04/04 02:03:46;;;;;;;7.47;4.80;;;1.10;99.90;;;;;;5101345;28;20424;-45
2022/04/04 02:06:11;;;;;;;11.80;4.60;;;1.20;99.90;;;;;;5101279;28;20434;-45
2022/04/04 02:08:38;;;;;;;5.57;4.57;;;1.20;99.90;;;;;;5101043;28;20422;-44
2022/04/04 02:11:04;;;;;;;8.50;4.43;;;1.20;99.90;;;;;;5100876;28;20255;-45
2022/04/04 02:13:30;;;;;;;10.23;5.30;;;1.30;99.90;;;;;;5100689;28;20512;-46
2022/04/04 02:16:00;;;;;;;6.87;4.87;;;1.20;99.90;;;;;;5100227;28;20539;-45
2022/04/04 02:18:30;;;;;;;6.60;4.93;;;1.20;99.90;;;;;;5100432;28;20196;-46
2022/04/04 02:20:56;;;;;;;7.33;5.30;;;1.20;99.90;;;;;;5104409;28;20816;-46
2022/04/04 02:23:22;;;;;;;9.57;5.50;;;1.20;99.90;;;;;;5106921;28;20404;-45
2022/04/04 02:25:49;;;;;;;7.83;5.37;;;1.20;99.90;;;;;;5106673;28;20851;-45
2022/04/04 02:28:15;;;;;;;8.33;5.97;;;1.20;99.90;;;;;;5107401;28;20176;-46
2022/04/04 02:30:42;;;;;;;9.97;6.13;;;1.20;99.90;;;;;;5106641;28;20499;-46
2022/04/04 02:33:08;;;;;;;8.37;5.50;;;1.20;99.90;;;;;;5106222;28;20928;-45
2022/04/04 02:35:34;;;;;;;8.33;6.33;;;1.20;99.90;;;;;;5106318;28;20462;-45
2022/04/04 02:38:00;;;;;;;9.83;5.70;;;1.20;99.90;;;;;;5105383;28;20197;-46
2022/04/04 02:40:26;;;;;;;8.97;6.27;;;1.10;99.90;;;;;;5104171;28;20405;-44
2022/04/04 02:42:53;;;;;;;9.87;6.07;;;1.10;99.90;;;;;;5102958;28;20450;-45
2022/04/04 02:45:18;;;;;;;8.10;5.87;;;1.10;99.90;;;;;;5101896;28;20534;-45
2022/04/04 02:47:44;;;;;;;10.90;6.70;;;1.10;99.90;;;;;;5104549;28;20503;-45
2022/04/04 02:50:11;;;;;;;10.37;5.77;;;1.20;99.90;;;;;;5106815;28;20181;-45
2022/04/04 02:52:37;;;;;;;14.03;6.87;;;1.20;99.90;;;;;;5106117;28;21011;-45
2022/04/04 02:56:28;;;;;;;8.37;6.27;;;1.10;99.90;;;;;;5106218;28;20452;-46
2022/04/04 02:57:49;;;;;;;9.17;6.73;;;1.20;99.90;;;;;;5105662;28;20216;-45
2022/04/04 03:00:18;;;;;;;10.10;6.17;;;1.20;99.90;;;;;;5105390;28;20988;-44
2022/04/04 03:02:45;;;;;;;11.97;6.70;;;1.20;99.90;;;;;;5105524;28;20435;-45
2022/04/04 03:05:11;;;;;;;9.77;6.83;;;1.20;99.90;;;;;;5105588;28;20420;-46
2022/04/04 03:07:36;;;;;;;8.87;6.20;;;1.20;99.90;;;;;;5104742;28;20404;-46
2022/04/04 03:10:03;;;;;;;11.47;7.37;;;1.30;99.90;;;;;;5104327;28;20175;-45
2022/04/04 03:12:29;;;;;;;8.43;6.10;;;1.30;99.90;;;;;;5086019;28;20182;-46
2022/04/04 03:14:54;;;;;;;11.27;6.20;;;1.30;99.90;;;;;;5104777;28;20400;-44
2022/04/04 03:17:20;;;;;;;9.53;6.57;;;1.30;99.90;;;;;;5102759;28;20213;-44
2022/04/04 03:19:47;;;;;;;13.83;6.77;;;1.40;99.90;;;;;;5102347;28;20824;-46
2022/04/04 03:22:13;;;;;;;10.70;6.93;;;1.30;99.90;;;;;;5104672;28;20179;-47
2022/04/04 03:24:39;;;;;;;9.40;6.63;;;1.30;99.90;;;;;;5085880;28;20420;-46
2022/04/04 03:27:05;;;;;;;8.83;5.77;;;1.30;99.90;;;;;;5103948;28;20801;-46
2022/04/04 03:29:31;;;;;;;9.37;6.17;;;1.40;99.90;;;;;;5103542;28;20214;-47
2022/04/04 03:31:58;;;;;;;7.03;5.63;;;1.40;99.90;;;;;;5100672;28;20447;-46
2022/04/04 03:34:25;;;;;;;11.10;6.13;;;1.40;99.90;;;;;;5100392;28;20421;-45
2022/04/04 03:36:50;;;;;;;8.93;5.90;;;1.40;99.90;;;;;;5100065;28;20888;-46
2022/04/04 03:39:16;;;;;;;10.97;6.17;;;1.40;99.90;;;;;;5098551;28;20417;-45
2022/04/04 03:41:46;;;;;;;9.60;6.10;;;1.40;99.90;;;;;;5100964;28;20175;-44
2022/04/04 03:44:12;;;;;;;11.90;6.30;;;1.40;99.90;;;;;;5100518;28;20167;-45
2022/04/04 03:46:38;;;;;;;9.57;5.93;;;1.40;99.90;;;;;;5099655;28;20801;-46
2022/04/04 03:49:07;;;;;;;10.83;6.53;;;1.50;99.90;;;;;;5099210;28;20435;-46
2022/04/04 03:51:33;;;;;;;10.63;6.70;;;1.50;99.90;;;;;;5098541;28;20416;-46
2022/04/04 03:53:58;;;;;;;14.47;7.10;;;1.50;99.90;;;;;;5098075;28;20807;-47
2022/04/04 03:56:24;;;;;;;13.83;7.07;;;1.50;99.90;;;;;;5097768;28;20244;-47
2022/04/04 03:58:52;;;;;;;11.43;7.57;;;1.50;99.90;;;;;;5097504;28;20232;-46
2022/04/04 04:01:17;;;;;;;12.70;7.37;;;1.50;99.90;;;;;;5099002;28;20261;-45
2022/04/04 04:03:43;;;;;;;10.67;6.20;;;1.60;99.90;;;;;;5101889;28;20482;-45
2022/04/04 04:06:11;;;;;;;6.83;4.30;;;1.60;99.90;;;;;;5100679;28;20199;-44
2022/04/04 04:08:39;;;;;;;12.87;6.47;;;1.60;99.90;;;;;;5101244;28;20186;-45
2022/04/04 04:11:05;;;;;;;14.03;6.73;;;1.70;99.90;;;;;;5101850;28;20417;-45
2022/04/04 04:13:31;;;;;;;11.47;5.83;;;1.70;99.90;;;;;;5101595;28;20473;-44
2022/04/04 04:15:57;;;;;;;13.10;7.17;;;1.70;99.90;;;;;;5101351;28;20206;-45
2022/04/04 04:18:23;;;;;;;11.27;6.67;;;1.70;99.90;;;;;;5100911;28;20409;-45
2022/04/04 04:20:50;;;;;;;10.70;5.57;;;1.70;99.90;;;;;;5082599;28;20440;-45
2022/04/04 04:23:16;;;;;;;14.27;6.97;;;1.80;99.90;;;;;;5100532;28;20182;-45
2022/04/04 04:25:42;;;;;;;10.87;6.50;;;1.80;99.90;;;;;;5100957;28;20445;-45
2022/04/04 04:28:09;;;;;;;9.83;5.60;;;1.80;99.90;;;;;;5083013;28;20425;-45
2022/04/04 04:30:35;;;;;;;11.73;6.37;;;1.80;99.90;;;;;;5101143;28;20184;-45
2022/04/04 04:33:02;;;;;;;10.07;5.43;;;1.80;99.90;;;;;;5100976;28;20389;-45
2022/04/04 04:35:28;;;;;;;4.03;3.10;;;1.80;99.90;;;;;;5100518;28;20229;-45
2022/04/04 04:37:54;;;;;;;7.43;4.73;;;1.80;99.90;;;;;;5083248;28;20417;-44
2022/04/04 04:40:20;;;;;;;8.93;6.00;;;1.90;99.90;;;;;;5102091;28;20902;-45
2022/04/04 04:42:48;;;;;;;10.33;5.33;;;1.80;99.90;;;;;;5095755;28;20182;-45
2022/04/04 04:45:14;;;;;;;10.67;5.33;;;1.90;99.90;;;;;;5095225;28;20183;-42
2022/04/04 04:47:41;;;;;;;13.00;6.50;;;1.80;99.90;;;;;;5095082;28;20470;-43
2022/04/04 04:50:07;;;;;;;7.23;5.23;;;1.80;99.90;;;;;;5076726;28;20191;-44
2022/04/04 04:52:34;;;;;;;10.27;5.93;;;1.80;99.90;;;;;;5094989;28;20854;-42
2022/04/04 04:55:00;;;;;;;8.97;5.93;;;1.80;99.90;;;;;;5094712;28;20419;-44
2022/04/04 04:57:26;;;;;;;7.87;4.37;;;1.80;99.90;;;;;;5094435;28;20461;-42
2022/04/04 04:59:52;;;;;;;9.00;5.37;;;1.80;99.90;;;;;;5094860;28;20424;-43
2022/04/04 05:02:17;;;;;;;8.60;5.93;;;1.90;99.90;;;;;;5094532;28;20496;-45
2022/04/04 05:04:43;;;;;;;8.23;5.73;;;1.80;99.90;;;;;;5095579;28;20682;-45
2022/04/04 05:07:09;;;;;;;8.40;5.50;;;1.90;99.90;;;;;;5094390;28;20203;-44
2022/04/04 05:09:35;;;;;;;14.20;5.57;;;1.90;99.90;;;;;;5094761;28;20183;-44
2022/04/04 05:12:01;;;;;;;11.20;5.97;;;1.90;99.90;;;;;;5094684;28;20187;-44
2022/04/04 05:14:28;;;;;;;5.77;4.17;;;1.90;99.90;;;;;;5076646;28;20502;-45
2022/04/04 05:16:54;;;;;;;6.97;5.27;;;2.00;99.90;;;;;;5094496;28;20461;-44
2022/04/04 05:19:22;;;;;;;6.47;4.07;;;2.00;99.90;;;;;;5093991;28;20195;-43
2022/04/04 05:21:48;;;;;;;7.83;4.77;;;2.00;99.90;;;;;;5094884;28;20159;-42
2022/04/04 05:24:14;;;;;;;7.83;4.90;;;2.10;99.90;;;;;;5094459;28;20453;-44
2022/04/04 05:26:40;;;;;;;6.17;4.33;;;2.10;99.90;;;;;;5094329;28;20452;-45
2022/04/04 05:29:06;;;;;;;6.70;4.40;;;2.10;99.90;;;;;;5075851;28;20185;-45
2022/04/04 05:31:32;;;;;;;7.37;4.50;;;2.20;99.90;;;;;;5094001;28;20550;-43
2022/04/04 05:33:58;;;;;;;8.00;4.67;;;2.30;99.90;;;;;;5094411;28;20187;-43
2022/04/04 05:36:27;;;;;;;7.43;3.97;;;2.30;99.90;;;;;;5076193;28;20221;-44
2022/04/04 05:38:52;;;;;;;6.63;4.23;;;2.30;99.90;;;;;;5095100;28;20966;-43
2022/04/04 05:41:18;;;;;;;10.90;5.07;;;2.40;99.90;;;;;;5095701;28;20538;-43
2022/04/04 05:43:47;;;;;;;8.20;3.40;;;2.40;99.90;;;;;;5094418;28;20262;-45
2022/04/04 05:46:13;;;;;;;6.27;3.70;;;2.40;99.90;;;;;;5093994;28;20450;-43
2022/04/04 05:48:39;;;;;;;7.50;4.60;;;2.50;99.90;;;;;;5093814;28;20417;-44
2022/04/04 05:51:04;;;;;;;9.93;4.73;;;2.50;99.90;;;;;;5093981;28;20432;-43
2022/04/04 05:53:30;;;;;;;5.50;4.13;;;2.50;99.90;;;;;;5093817;28;20588;-40
2022/04/04 05:55:56;;;;;;;9.83;5.23;;;2.60;99.90;;;;;;5092941;28;20267;-41
2022/04/04 05:58:22;;;;;;;7.37;5.03;;;2.60;99.90;;;;;;5093854;28;20184;-41
2022/04/04 06:00:48;;;;;;;7.20;4.30;;;2.60;99.90;;;;;;5093488;28;20191;-41
2022/04/04 06:03:14;;;;;;;6.17;3.90;;;2.60;99.90;;;;;;5075439;28;20428;-40
2022/04/04 06:05:41;;;;;;;7.63;5.30;;;2.70;99.90;;;;;;5093594;28;20432;-40
2022/04/04 06:08:07;;;;;;;6.03;3.43;;;2.70;99.90;;;;;;5094203;28;20239;-40
2022/04/04 06:10:33;;;;;;;8.27;4.57;;;2.70;99.90;;;;;;5093430;28;20924;-39
2022/04/04 06:12:58;;;;;;;6.80;3.83;;;2.80;99.90;;;;;;5093380;28;20414;-41
2022/04/04 06:15:24;;;;;;;5.30;4.37;;;2.80;99.90;;;;;;5093521;28;20605;-41
2022/04/04 06:17:50;;;;;;;4.80;3.53;;;2.80;99.90;;;;;;5093449;28;20262;-41
2022/04/04 06:20:15;;;;;;;5.40;3.40;;;2.80;99.90;;;;;;5093228;28;20235;-41
2022/04/04 06:22:41;;;;;;;10.40;4.70;;;2.90;99.90;;;;;;5093530;28;20178;-42
2022/04/04 06:25:09;;;;;;;7.47;4.23;;;2.90;99.90;;;;;;5093253;28;20636;-40
2022/04/04 06:27:36;;;;;;;6.10;3.57;;;3.00;99.90;;;;;;5075077;28;20640;-40
2022/04/04 06:30:03;;;;;;;5.27;4.47;;;3.10;99.90;;;;;;5093232;28;20424;-40
2022/04/04 06:32:28;;;;;;;2.80;2.13;;;3.30;99.90;;;;;;5093408;28;20485;-40
2022/04/04 06:34:54;;;;;;;5.27;3.53;;;3.50;99.90;;;;;;5093719;28;20496;-40
2022/04/04 06:37:19;;;;;;;6.30;3.90;;;3.60;99.90;;;;;;5093237;28;20206;-41
2022/04/04 06:39:46;;;;;;;6.33;4.67;;;3.80;99.90;;;;;;5075539;28;20182;-42
2022/04/04 06:42:11;;;;;;;6.63;3.67;;;3.90;99.90;;;;;;5074938;28;20170;-41
2022/04/04 06:44:37;;;;;;;4.50;3.57;;;4.10;99.90;;;;;;5093051;28;20858;-41
2022/04/04 06:47:04;;;;;;;8.47;2.93;;;4.20;99.90;;;;;;5074885;28;20209;-42
2022/04/04 06:49:30;;;;;;;10.07;3.27;;;4.30;99.90;;;;;;5093034;28;20172;-40
2022/04/04 06:51:56;;;;;;;5.63;4.50;;;4.50;99.90;;;;;;5093266;28;20457;-40
2022/04/04 06:54:22;;;;;;;6.43;4.67;;;4.60;99.90;;;;;;5074996;28;20186;-41
2022/04/04 06:56:49;;;;;;;4.77;3.30;;;4.70;99.90;;;;;;5092864;28;20532;-41
2022/04/04 06:59:16;;;;;;;5.83;3.47;;;4.80;99.90;;;;;;5093537;28;20204;-41
2022/04/04 07:01:42;;;;;;;5.90;3.10;;;4.80;99.90;;;;;;5092969;28;20643;-42
2022/04/04 07:04:09;;;;;;;6.33;3.80;;;4.80;99.90;;;;;;5093240;28;20182;-44
2022/04/04 07:06:36;;;;;;;4.07;2.60;;;4.80;99.90;;;;;;5093158;28;20198;-40
2022/04/04 07:09:01;;;;;;;7.17;4.23;;;4.80;99.90;;;;;;5097076;28;20188;-40
2022/04/04 07:11:29;;;;;;;8.53;4.57;;;4.80;99.90;;;;;;5096917;28;20186;-41
2022/04/04 07:13:55;;;;;;;5.87;3.60;;;4.90;99.90;;;;;;5096951;28;20314;-39
2022/04/04 07:16:21;;;;;;;6.13;3.07;;;5.00;99.90;;;;;;5096510;28;20666;-44
2022/04/04 07:18:48;;;;;;;5.10;3.70;;;5.20;99.90;;;;;;5096762;28;20245;-42
2022/04/04 07:21:15;;;;;;;4.30;3.10;;;5.30;99.90;;;;;;5096366;28;20198;-42
2022/04/04 07:23:41;;;;;;;6.17;3.23;;;5.40;99.90;;;;;;5096691;28;20178;-42
2022/04/04 07:26:06;;;;;;;4.67;3.57;;;5.40;99.90;;;;;;5096265;28;20715;-40
2022/04/04 07:28:32;;;;;;;6.30;4.13;;;5.40;99.90;;;;;;5096319;28;20545;-40
2022/04/04 07:30:58;;;;;;;8.13;3.10;;;5.40;99.90;;;;;;5096921;28;20182;-42
2022/04/04 07:33:24;;;;;;;3.67;2.70;;;5.40;99.90;;;;;;5096590;28;20179;-39
2022/04/04 07:35:50;;;;;;;3.73;3.00;;;5.50;99.90;;;;;;5096132;28;20300;-40
2022/04/04 07:38:16;;;;;;;3.83;2.73;;;5.50;99.90;;;;;;5096524;28;20179;-40
2022/04/04 07:40:42;;;;;;;6.03;3.53;;;5.60;99.90;;;;;;5096347;28;20262;-40
2022/04/04 07:43:08;;;;;;;6.80;3.37;;;5.60;99.90;;;;;;5096199;28;20214;-41
2022/04/04 07:45:34;;;;;;;4.87;2.60;;;5.70;99.90;;;;;;5095961;28;20202;-41
2022/04/04 07:48:00;;;;;;;6.83;2.73;;;5.70;99.90;;;;;;5096026;28;20239;-40
2022/04/04 07:50:26;;;;;;;3.33;3.03;;;5.70;99.90;;;;;;5096266;28;20216;-41
2022/04/04 07:52:52;;;;;;;5.93;3.90;;;5.80;99.90;;;;;;5096171;28;20183;-42
2022/04/04 07:55:18;;;;;;;4.77;3.67;;;5.80;99.90;;;;;;5095772;28;20257;-41
2022/04/04 07:57:44;;;;;;;5.97;3.80;;;5.80;99.90;;;;;;5096001;28;20561;-40
2022/04/04 08:00:14;;;;;;;3.40;2.97;;;5.90;99.90;;;;;;5095802;28;20229;-40
2022/04/04 08:02:40;;;;;;;9.47;4.17;;;5.80;99.90;;;;;;5095749;28;20194;-40
2022/04/04 08:05:07;;;;;;;5.37;3.63;;;5.90;99.90;;;;;;5095551;28;20216;-41
2022/04/04 08:07:32;;;;;;;4.40;2.60;;;5.90;99.90;;;;;;5095827;28;20190;-41
2022/04/04 08:09:58;;;;;;;4.77;3.23;;;5.90;99.90;;;;;;5095625;28;20175;-39
2022/04/04 08:12:28;;;;;;;4.47;3.37;;;6.00;99.90;;;;;;5095556;28;20170;-39
2022/04/04 08:14:54;;;;;;;3.60;2.63;;;6.00;99.90;;;;;;5095443;28;20539;-39
2022/04/04 08:17:20;;;;;;;7.43;4.37;;;6.10;99.90;;;;;;5095087;28;20218;-44
2022/04/04 08:19:45;;;;;;;4.93;3.53;;;6.10;99.90;;;;;;5095093;28;20196;-43
2022/04/04 08:22:11;;;;;;;4.87;3.63;;;6.20;99.90;;;;;;5077215;28;20184;-40
2022/04/04 08:24:37;;;;;;;6.40;3.30;;;6.30;99.90;;;;;;5095320;28;20205;-42
2022/04/04 08:27:02;;;;;;;3.10;2.43;;;6.30;99.90;;;;;;5095284;28;20693;-41
2022/04/04 08:29:28;;;;;;;9.37;3.93;;;6.40;99.90;;;;;;5095415;28;20322;-40
2022/04/04 08:31:54;;;;;;;6.33;3.10;;;6.40;99.90;;;;;;5095193;28;20180;-40
2022/04/04 08:34:19;;;;;;;5.70;3.67;;;6.50;99.90;;;;;;5095332;28;20191;-43
2022/04/04 08:36:45;;;;;;;5.07;4.10;;;6.50;99.90;;;;;;5095193;28;20277;-41
2022/04/04 08:39:11;;;;;;;4.20;3.07;;;6.50;99.90;;;;;;5095042;28;20171;-39
2022/04/04 08:41:38;;;;;;;5.07;3.33;;;6.70;99.90;;;;;;5095341;28;20180;-43
2022/04/04 08:44:05;;;;;;;4.00;3.17;;;6.80;99.90;;;;;;5095073;28;20631;-41
2022/04/04 08:46:33;;;;;;;4.83;3.90;;;6.80;99.90;;;;;;5095742;28;20228;-40
2022/04/04 08:49:00;;;;;;;3.37;2.93;;;6.90;99.90;;;;;;5095118;28;20186;-41
2022/04/04 08:51:26;;;;;;;5.47;3.93;;;7.10;99.90;;;;;;5094786;28;20669;-40
2022/04/04 08:53:53;;;;;;;7.73;3.13;;;7.20;99.90;;;;;;5094852;28;20186;-41
2022/04/04 08:56:21;;;;;;;7.10;3.50;;;7.30;99.90;;;;;;5094508;28;20262;-42
2022/04/04 08:58:47;;;;;;;4.43;3.13;;;7.40;99.90;;;;;;5095490;28;20571;-43
2022/04/04 09:01:13;;;;;;;5.47;2.83;;;7.50;99.90;;;;;;5094775;28;20171;-41
2022/04/04 09:03:38;;;;;;;5.33;2.63;;;7.50;99.90;;;;;;5095238;28;20227;-41
2022/04/04 09:06:05;;;;;;;6.87;3.30;;;7.60;99.90;;;;;;5094805;28;20539;-41
2022/04/04 09:08:45;;;;;;;6.83;3.47;;;7.60;99.90;;;;;;5095537;28;20186;-40
2022/04/04 09:11:12;;;;;;;6.40;3.90;;;7.70;99.90;;;;;;5097354;28;20521;-42
2022/04/04 09:13:38;;;;;;;3.23;2.33;;;7.80;99.90;;;;;;5095319;28;20188;-41
2022/04/04 09:16:06;;;;;;;4.83;3.93;;;7.90;99.90;;;;;;5094244;28;20205;-41
2022/04/04 09:18:40;;;;;;;4.77;2.87;;;8.00;99.90;;;;;;5094340;28;20179;-41
2022/04/04 09:21:19;;;;;;;2.57;2.30;;;8.10;99.90;;;;;;5094235;28;20192;-40
2022/04/04 09:23:45;;;;;;;4.97;3.90;;;8.10;99.90;;;;;;5094154;28;20229;-42
2022/04/04 09:26:28;;;;;;;5.67;3.20;;;8.20;99.90;;;;;;5094520;28;20225;-41
2022/04/04 09:28:53;;;;;;;6.07;3.83;;;8.10;99.90;;;;;;5094509;28;20155;-40
2022/04/04 09:31:19;;;;;;;3.93;2.50;;;8.10;99.90;;;;;;5093764;28;20770;-40
2022/04/04 09:33:44;;;;;;;4.37;3.13;;;8.10;99.90;;;;;;5094366;28;20179;-40
2022/04/04 09:36:10;;;;;;;5.60;3.43;;;8.20;99.90;;;;;;5093991;28;20209;-40
2022/04/04 09:38:35;;;;;;;5.83;3.47;;;8.20;99.90;;;;;;5094269;28;20283;-40
2022/04/04 09:41:17;;;;;;;5.00;3.50;;;8.10;99.90;;;;;;5093935;28;20534;-41
2022/04/04 09:43:51;;;;;;;4.83;3.57;;;8.20;99.90;;;;;;5094427;28;20620;-40
2022/04/04 09:46:17;;;;;;;4.60;3.47;;;8.10;99.90;;;;;;5094112;28;20289;-40
2022/04/04 09:49:01;;;;;;;8.27;4.00;;;8.10;99.90;;;;;;5093877;28;20604;-41
2022/04/04 09:51:44;;;;;;;5.50;3.80;;;8.10;99.90;;;;;;5093786;28;20265;-41
2022/04/04 09:54:24;;;;;;;8.03;4.57;;;8.20;99.90;;;;;;5093867;28;20158;-41
2022/04/04 09:56:56;;;;;;;7.73;4.87;;;8.10;99.90;;;;;;5093609;28;20226;-42
2022/04/04 09:59:22;;;;;;;3.40;2.70;;;8.10;99.90;;;;;;5093991;28;20163;-40
2022/04/04 10:01:48;;;;;;;6.13;4.40;;;8.10;99.90;;;;;;5093796;28;20320;-41
2022/04/04 10:04:14;;;;;;;4.30;2.90;;;8.10;99.90;;;;;;5094357;28;20239;-40
2022/04/04 10:06:42;;;;;;;7.57;5.10;;;8.00;99.90;;;;;;5095198;28;20199;-45
2022/04/04 10:09:08;;;;;;;6.70;3.80;;;7.90;99.90;;;;;;5096053;28;20175;-44
2022/04/04 10:11:38;;;;;;;8.47;4.20;;;7.80;99.90;;;;;;5095583;28;20183;-44
2022/04/04 10:14:04;;;;;;;5.00;3.63;;;7.70;99.90;;;;;;5095330;28;20262;-45
2022/04/04 10:16:31;;;;;;;8.43;4.67;;;7.60;99.90;;;;;;5077469;28;20719;-45
2022/04/04 10:18:57;;;;;;;4.17;3.73;;;7.50;99.90;;;;;;5095625;28;20179;-47
2022/04/04 10:21:25;;;;;;;3.47;3.07;;;7.50;99.90;;;;;;5095063;28;20249;-45
2022/04/04 10:23:55;;;;;;;8.27;4.63;;;7.50;99.90;;;;;;5094853;28;20189;-47
2022/04/04 10:26:26;;;;;;;7.10;4.40;;;7.50;99.90;;;;;;5094640;28;20197;-44
2022/04/04 10:29:15;;;;;;;7.03;4.23;;;7.50;99.90;;;;;;5095468;28;20190;-46
2022/04/04 10:31:45;;;;;;;6.47;3.70;;;7.50;99.90;;;;;;5094622;28;20163;-45
2022/04/04 10:34:13;;;;;;;8.20;3.27;;;7.50;99.90;;;;;;5094528;28;20258;-46
2022/04/04 10:36:56;;;;;;;7.03;3.30;;;7.50;99.90;;;;;;5076106;28;20207;-45
2022/04/04 10:39:35;;;;;;;6.23;5.13;;;7.60;99.90;;;;;;5094369;28;20194;-45
2022/04/04 10:42:02;;;;;;;7.50;4.30;;;7.60;99.90;;;;;;5096529;28;20155;-44
2022/04/04 10:44:47;;;;;;;7.03;3.47;;;7.60;99.90;;;;;;5098242;28;20175;-46
2022/04/04 10:47:21;;;;;;;4.93;4.27;;;7.60;99.90;;;;;;5097836;28;20742;-45
2022/04/04 10:49:47;;;;;;;6.57;4.90;;;7.60;99.90;;;;;;5098180;28;20186;-47
2022/04/04 10:52:13;;;;;;;7.87;4.43;;;7.60;99.90;;;;;;5098271;28;20262;-46
2022/04/04 10:54:38;;;;;;;4.50;4.10;;;7.60;99.90;;;;;;5098491;28;20611;-45
2022/04/04 10:57:16;;;;;;;6.43;3.90;;;7.60;99.90;;;;;;5098048;28;20199;-47
2022/04/04 10:59:46;;;;;;;3.73;3.30;;;7.60;99.90;;;;;;5097891;28;20624;-47
2022/04/04 11:02:14;;;;;;;8.27;4.77;;;7.60;99.90;;;;;;5097871;28;20170;-44
2022/04/04 11:07:38;;;;;;;12.20;4.70;;;7.60;99.90;;;;;;5097807;28;20183;-44
2022/04/04 11:07:38;;;;;;;4.13;2.90;;;7.40;99.90;;;;;;5097225;28;20198;-45
2022/04/04 11:10:07;;;;;;;6.77;3.40;;;7.30;99.90;;;;;;5097716;28;20151;-45
2022/04/04 11:13:00;;;;;;;6.67;4.00;;;7.20;99.90;;;;;;5079402;28;20178;-46
2022/04/04 11:15:43;;;;;;;7.20;4.13;;;7.10;99.90;;;;;;5093332;28;20214;-45
2022/04/04 11:18:13;;;;;;;4.87;3.63;;;7.00;99.90;;;;;;5097329;28;20179;-46
2022/04/04 11:20:48;;;;;;;4.30;3.47;;;6.90;99.90;;;;;;5096755;28;20192;-46
2022/04/04 11:23:14;;;;;;;6.83;4.03;;;6.90;99.90;;;;;;5097258;28;20154;-45
2022/04/04 11:25:53;;;;;;;6.40;4.00;;;6.80;99.90;;;;;;5096946;28;20528;-44
2022/04/04 11:28:22;;;;;;;5.57;3.90;;;6.70;99.90;;;;;;5097149;28;20173;-46
2022/04/04 11:31:01;;;;;;;4.10;3.00;;;6.70;99.90;;;;;;5097424;28;20175;-46
2022/04/04 11:33:28;;;;;;;6.77;3.60;;;6.60;99.90;;;;;;5097771;28;20258;-45
2022/04/04 11:35:54;;;;;;;6.70;4.83;;;6.60;99.90;;;;;;5096899;28;20202;-42
2022/04/04 11:38:20;;;;;;;4.73;3.83;;;6.50;99.90;;;;;;5097647;28;20235;-46
2022/04/04 11:40:53;;;;;;;7.23;4.03;;;6.40;99.90;;;;;;5079991;28;20190;-46
2022/04/04 11:43:24;;;;;;;6.80;4.83;;;6.40;99.90;;;;;;5097385;28;20173;-45
2022/04/04 11:45:52;;;;;;;5.33;3.80;;;6.30;99.90;;;;;;5098004;28;20195;-44
2022/04/04 11:48:24;;;;;;;11.13;5.60;;;6.20;99.90;;;;;;5098297;28;20178;-45
2022/04/04 11:50:56;;;;;;;4.57;3.80;;;6.20;99.90;;;;;;5098300;28;20174;-45
2022/04/04 11:53:25;;;;;;;8.73;5.60;;;6.20;99.90;;;;;;5096552;28;20204;-46
2022/04/04 11:55:52;;;;;;;8.20;4.40;;;6.10;99.90;;;;;;5096866;28;20193;-45
2022/04/04 11:58:20;;;;;;;6.93;4.93;;;6.10;99.90;;;;;;5097384;28;20194;-44
2022/04/04 12:00:55;;;;;;;7.13;4.73;;;6.10;99.90;;;;;;5097860;28;20269;-43
2022/04/04 12:03:23;;;;;;;5.70;5.07;;;6.00;99.90;;;;;;5097702;28;20170;-44
2022/04/04 12:05:49;;;;;;;6.73;4.30;;;6.00;99.90;;;;;;5096432;28;20193;-43
2022/04/04 12:08:17;;;;;;;6.17;4.27;;;6.00;99.90;;;;;;5095732;28;20543;-45
2022/04/04 12:10:45;;;;;;;5.47;3.43;;;5.90;99.90;;;;;;5077587;28;20182;-41
2022/04/04 12:13:13;;;;;;;3.17;2.53;;;5.90;99.90;;;;;;5095673;28;20182;-42
2022/04/04 12:15:44;;;;;;;5.57;4.27;;;5.90;99.90;;;;;;5095843;28;20227;-42
2022/04/04 12:18:30;;;;;;;7.60;4.97;;;5.80;99.90;;;;;;5077558;28;20170;-43
2022/04/04 12:20:59;;;;;;;4.63;4.13;;;5.80;99.90;;;;;;5076721;28;20303;-44
2022/04/04 12:26:13;;;;;;;5.20;3.60;;;5.80;99.90;;;;;;5095922;28;20212;-42
2022/04/04 12:28:51;;;;;;;5.43;3.70;;;5.80;99.90;;;;;;5095724;28;20246;-44
2022/04/04 12:31:27;;;;;;;6.23;4.27;;;5.80;99.90;;;;;;5095629;28;20227;-44
2022/04/04 12:33:53;;;;;;;7.87;3.87;;;5.80;99.90;;;;;;5095866;28;20215;-43
2022/04/04 12:36:38;;;;;;;5.30;4.50;;;5.90;99.90;;;;;;5095032;28;20583;-45
2022/04/04 12:39:05;;;;;;;6.00;3.47;;;5.80;99.90;;;;;;5096042;28;20163;-43
2022/04/04 12:41:43;;;;;;;11.37;4.20;;;5.80;99.90;;;;;;5097055;28;20704;-45
2022/04/04 12:44:10;;;;;;;4.40;3.80;;;5.80;99.90;;;;;;5096183;28;20162;-41
2022/04/04 12:46:36;;;;;;;5.83;4.43;;;5.90;99.90;;;;;;5095202;28;20602;-42
2022/04/04 12:49:17;;;;;;;5.63;4.33;;;5.90;99.90;;;;;;5095001;28;20185;-41
2022/04/04 12:51:55;;;;;;;6.07;4.00;;;5.80;99.90;;;;;;5095171;28;20219;-40
2022/04/04 12:54:28;;;;;;;3.97;3.57;;;5.80;99.90;;;;;;5076693;28;20330;-40
2022/04/04 12:56:54;;;;;;;6.80;4.43;;;5.80;99.90;;;;;;5094662;28;20752;-41
2022/04/04 12:59:22;;;;;;;4.10;3.33;;;5.80;99.90;;;;;;5094842;28;20167;-39
2022/04/04 13:02:09;;;;;;;5.23;4.60;;;5.80;99.90;;;;;;5095200;28;20635;-41